sensor_id;sensor_type;location;lat;lon;timestamp;P1;durP1;ratioP1;P2;durP2;ratioP2
5630;SDS011;2837;50.990;7.124;2023-04-15T05:02:19;156.27;;;7.43;;
5630;SDS011;2837;50.990;7.124;2023-04-15T05:04:45;155.47;;;7.70;;
5630;SDS011;2837;50.990;7.124;2023-04-15T05:07:10;155.70;;;7.27;;
5630;SDS011;2837;50.990;7.124;2023-04-15T05:09:36;154.03;;;7.10;;
5630;SDS011;2837;50.990;7.124;2023-04-15T05:12:02;155.90;;;7.07;;
5630;SDS011;2837;50.990;7.124;2023-04-15T05:14:28;155.67;;;7.60;;
5630;SDS011;2837;50.990;7.124;2023-04-15T05:16:54;157.37;;;7.47;;
5630;SDS011;2837;50.990;7.124;2023-04-15T05:19:20;155.57;;;7.50;;
5630;SDS011;2837;50.990;7.124;2023-04-15T05:21:46;154.87;;;7.17;;
5630;SDS011;2837;50.990;7.124;2023-04-15T05:24:11;157.10;;;8.03;;
5630;SDS011;2837;50.990;7.124;2023-04-15T05:26:37;158.97;;;8.30;;
5630;SDS011;2837;50.990;7.124;2023-04-15T05:29:03;156.70;;;7.80;;
5630;SDS011;2837;50.990;7.124;2023-04-15T05:31:28;155.07;;;7.43;;
5630;SDS011;2837;50.990;7.124;2023-04-15T05:33:54;157.27;;;7.57;;
5630;SDS011;2837;50.990;7.124;2023-04-15T05:36:19;155.53;;;7.90;;
5630;SDS011;2837;50.990;7.124;2023-04-15T05:38:45;155.07;;;7.73;;
5630;SDS011;2837;50.990;7.124;2023-04-15T05:41:10;156.97;;;7.10;;
5630;SDS011;2837;50.990;7.124;2023-04-15T05:43:36;155.73;;;8.23;;
5630;SDS011;2837;50.990;7.124;2023-04-15T05:46:01;158.00;;;7.40;;
5630;SDS011;2837;50.990;7.124;2023-04-15T05:48:27;154.90;;;7.33;;
5630;SDS011;2837;50.990;7.124;2023-04-15T05:50:53;154.47;;;7.83;;
5630;SDS011;2837;50.990;7.124;2023-04-15T05:53:18;156.47;;;7.90;;
5630;SDS011;2837;50.990;7.124;2023-04-15T05:55:44;157.27;;;8.27;;
5630;SDS011;2837;50.990;7.124;2023-04-15T05:58:10;154.67;;;7.77;;
5630;SDS011;2837;50.990;7.124;2023-04-15T06:00:36;156.27;;;8.20;;
5630;SDS011;2837;50.990;7.124;2023-04-15T06:03:02;156.63;;;7.70;;
5630;SDS011;2837;50.990;7.124;2023-04-15T06:05:28;156.53;;;7.80;;
5630;SDS011;2837;50.990;7.124;2023-04-15T06:07:53;156.53;;;8.33;;
5630;SDS011;2837;50.990;7.124;2023-04-15T06:10:19;154.70;;;7.80;;
5630;SDS011;2837;50.990;7.124;2023-04-15T06:12:45;156.80;;;8.40;;
5630;SDS011;2837;50.990;7.124;2023-04-15T06:15:10;155.57;;;8.13;;
5630;SDS011;2837;50.990;7.124;2023-04-15T06:17:36;157.20;;;9.03;;
5630;SDS011;2837;50.990;7.124;2023-04-15T06:20:02;156.20;;;8.40;;
5630;SDS011;2837;50.990;7.124;2023-04-15T06:22:28;156.67;;;8.53;;
5630;SDS011;2837;50.990;7.124;2023-04-15T06:24:53;156.90;;;8.20;;
5630;SDS011;2837;50.990;7.124;2023-04-15T06:27:19;155.60;;;8.20;;
5630;SDS011;2837;50.990;7.124;2023-04-15T06:29:45;154.57;;;7.70;;
5630;SDS011;2837;50.990;7.124;2023-04-15T06:32:11;155.87;;;8.63;;
5630;SDS011;2837;50.990;7.124;2023-04-15T06:34:37;157.07;;;9.07;;
5630;SDS011;2837;50.990;7.124;2023-04-15T06:37:02;155.67;;;8.70;;
5630;SDS011;2837;50.990;7.124;2023-04-15T06:39:28;155.90;;;8.50;;
5630;SDS011;2837;50.990;7.124;2023-04-15T06:41:53;154.43;;;8.07;;
5630;SDS011;2837;50.990;7.124;2023-04-15T06:44:20;154.77;;;7.97;;
5630;SDS011;2837;50.990;7.124;2023-04-15T06:46:45;154.33;;;8.13;;
5630;SDS011;2837;50.990;7.124;2023-04-15T06:49:11;157.37;;;7.70;;
5630;SDS011;2837;50.990;7.124;2023-04-15T06:51:37;156.17;;;8.60;;
5630;SDS011;2837;50.990;7.124;2023-04-15T06:54:03;153.87;;;8.03;;
5630;SDS011;2837;50.990;7.124;2023-04-15T06:56:30;155.37;;;8.30;;
5630;SDS011;2837;50.990;7.124;2023-04-15T06:58:56;153.60;;;8.00;;
5630;SDS011;2837;50.990;7.124;2023-04-15T07:01:21;154.23;;;8.03;;
5630;SDS011;2837;50.990;7.124;2023-04-15T07:03:47;153.97;;;8.03;;
5630;SDS011;2837;50.990;7.124;2023-04-15T07:06:13;153.47;;;8.00;;
5630;SDS011;2837;50.990;7.124;2023-04-15T07:08:38;153.70;;;8.50;;
5630;SDS011;2837;50.990;7.124;2023-04-15T07:11:04;153.97;;;8.30;;
5630;SDS011;2837;50.990;7.124;2023-04-15T07:13:30;153.57;;;8.00;;
5630;SDS011;2837;50.990;7.124;2023-04-15T07:15:56;152.90;;;7.73;;
5630;SDS011;2837;50.990;7.124;2023-04-15T07:18:22;154.57;;;7.97;;
5630;SDS011;2837;50.990;7.124;2023-04-15T07:20:48;152.87;;;7.80;;
5630;SDS011;2837;50.990;7.124;2023-04-15T07:23:13;153.07;;;7.87;;
5630;SDS011;2837;50.990;7.124;2023-04-15T07:25:39;153.30;;;7.80;;
5630;SDS011;2837;50.990;7.124;2023-04-15T07:28:05;153.17;;;8.27;;
5630;SDS011;2837;50.990;7.124;2023-04-15T07:30:30;153.33;;;8.23;;
5630;SDS011;2837;50.990;7.124;2023-04-15T07:32:57;154.00;;;8.17;;
5630;SDS011;2837;50.990;7.124;2023-04-15T07:35:23;152.40;;;7.60;;
5630;SDS011;2837;50.990;7.124;2023-04-15T07:37:50;152.67;;;8.20;;
5630;SDS011;2837;50.990;7.124;2023-04-15T07:40:16;152.37;;;8.10;;
5630;SDS011;2837;50.990;7.124;2023-04-15T07:42:42;151.07;;;7.50;;
5630;SDS011;2837;50.990;7.124;2023-04-15T07:45:08;154.33;;;8.13;;
5630;SDS011;2837;50.990;7.124;2023-04-15T07:47:34;152.97;;;8.67;;
5630;SDS011;2837;50.990;7.124;2023-04-15T07:50:00;151.67;;;7.60;;
5630;SDS011;2837;50.990;7.124;2023-04-15T07:52:26;150.80;;;7.03;;
5630;SDS011;2837;50.990;7.124;2023-04-15T07:54:52;152.80;;;8.57;;
5630;SDS011;2837;50.990;7.124;2023-04-15T07:57:17;151.50;;;7.40;;
5630;SDS011;2837;50.990;7.124;2023-04-15T07:59:43;152.27;;;7.60;;
5630;SDS011;2837;50.990;7.124;2023-04-15T08:02:09;152.37;;;7.67;;
5630;SDS011;2837;50.990;7.124;2023-04-15T08:04:35;151.47;;;7.60;;
5630;SDS011;2837;50.990;7.124;2023-04-15T08:07:02;152.10;;;7.50;;
5630;SDS011;2837;50.990;7.124;2023-04-15T08:09:28;151.07;;;7.30;;
5630;SDS011;2837;50.990;7.124;2023-04-15T08:11:54;151.37;;;7.30;;
5630;SDS011;2837;50.990;7.124;2023-04-15T08:14:21;152.80;;;7.17;;
5630;SDS011;2837;50.990;7.124;2023-04-15T08:16:46;151.57;;;7.90;;
5630;SDS011;2837;50.990;7.124;2023-04-15T08:19:12;151.60;;;8.00;;
5630;SDS011;2837;50.990;7.124;2023-04-15T08:21:37;151.20;;;7.60;;
5630;SDS011;2837;50.990;7.124;2023-04-15T08:24:04;151.73;;;8.00;;
5630;SDS011;2837;50.990;7.124;2023-04-15T08:26:31;151.50;;;7.67;;
5630;SDS011;2837;50.990;7.124;2023-04-15T08:28:56;150.77;;;7.37;;
5630;SDS011;2837;50.990;7.124;2023-04-15T08:31:22;150.17;;;7.30;;
5630;SDS011;2837;50.990;7.124;2023-04-15T08:33:50;150.87;;;6.90;;
5630;SDS011;2837;50.990;7.124;2023-04-15T08:36:16;151.47;;;7.47;;
5630;SDS011;2837;50.990;7.124;2023-04-15T08:38:43;151.60;;;7.80;;
5630;SDS011;2837;50.990;7.124;2023-04-15T08:41:45;154.77;;;7.50;;
5630;SDS011;2837;50.990;7.124;2023-04-15T08:44:03;152.27;;;7.63;;
5630;SDS011;2837;50.990;7.124;2023-04-15T08:46:31;152.47;;;7.93;;
5630;SDS011;2837;50.990;7.124;2023-04-15T08:48:59;149.87;;;7.50;;
5630;SDS011;2837;50.990;7.124;2023-04-15T08:51:27;150.70;;;7.57;;
5630;SDS011;2837;50.990;7.124;2023-04-15T08:53:53;151.30;;;7.90;;
5630;SDS011;2837;50.990;7.124;2023-04-15T08:56:19;152.30;;;7.70;;
5630;SDS011;2837;50.990;7.124;2023-04-15T08:58:49;152.47;;;8.83;;
5630;SDS011;2837;50.990;7.124;2023-04-15T09:01:15;151.10;;;7.50;;
5630;SDS011;2837;50.990;7.124;2023-04-15T09:03:41;150.63;;;7.43;;
5630;SDS011;2837;50.990;7.124;2023-04-15T09:06:06;150.70;;;7.70;;
5630;SDS011;2837;50.990;7.124;2023-04-15T09:08:33;149.67;;;6.80;;
5630;SDS011;2837;50.990;7.124;2023-04-15T09:11:00;151.53;;;7.90;;
5630;SDS011;2837;50.990;7.124;2023-04-15T09:13:26;150.17;;;8.10;;
5630;SDS011;2837;50.990;7.124;2023-04-15T09:15:52;150.60;;;7.67;;
5630;SDS011;2837;50.990;7.124;2023-04-15T09:18:26;150.87;;;8.00;;
5630;SDS011;2837;50.990;7.124;2023-04-15T09:20:53;151.67;;;8.20;;
5630;SDS011;2837;50.990;7.124;2023-04-15T09:23:19;150.27;;;7.90;;
5630;SDS011;2837;50.990;7.124;2023-04-15T09:25:45;150.20;;;7.03;;
5630;SDS011;2837;50.990;7.124;2023-04-15T09:28:10;150.43;;;7.70;;
5630;SDS011;2837;50.990;7.124;2023-04-15T09:30:36;150.57;;;7.77;;
5630;SDS011;2837;50.990;7.124;2023-04-15T09:33:02;150.83;;;7.60;;
5630;SDS011;2837;50.990;7.124;2023-04-15T09:35:32;149.67;;;7.07;;
5630;SDS011;2837;50.990;7.124;2023-04-15T09:38:03;150.87;;;7.43;;
5630;SDS011;2837;50.990;7.124;2023-04-15T09:40:32;151.17;;;7.60;;
5630;SDS011;2837;50.990;7.124;2023-04-15T09:43:02;151.20;;;8.03;;
5630;SDS011;2837;50.990;7.124;2023-04-15T09:45:29;152.60;;;8.03;;
5630;SDS011;2837;50.990;7.124;2023-04-15T09:47:58;152.97;;;7.90;;
5630;SDS011;2837;50.990;7.124;2023-04-15T09:50:41;150.50;;;7.43;;
5630;SDS011;2837;50.990;7.124;2023-04-15T09:53:08;150.83;;;7.13;;
5630;SDS011;2837;50.990;7.124;2023-04-15T09:55:35;150.40;;;7.30;;
5630;SDS011;2837;50.990;7.124;2023-04-15T09:58:00;150.73;;;7.60;;
5630;SDS011;2837;50.990;7.124;2023-04-15T10:00:26;152.37;;;7.97;;
5630;SDS011;2837;50.990;7.124;2023-04-15T10:02:53;150.17;;;7.40;;
5630;SDS011;2837;50.990;7.124;2023-04-15T10:05:19;150.27;;;7.70;;
5630;SDS011;2837;50.990;7.124;2023-04-15T10:07:45;150.00;;;7.93;;
5630;SDS011;2837;50.990;7.124;2023-04-15T10:10:12;150.70;;;7.93;;
5630;SDS011;2837;50.990;7.124;2023-04-15T10:12:39;150.70;;;7.20;;
5630;SDS011;2837;50.990;7.124;2023-04-15T10:15:06;150.90;;;8.00;;
5630;SDS011;2837;50.990;7.124;2023-04-15T10:17:42;150.07;;;7.77;;
5630;SDS011;2837;50.990;7.124;2023-04-15T10:20:09;150.20;;;7.70;;
5630;SDS011;2837;50.990;7.124;2023-04-15T10:22:36;150.70;;;7.70;;
5630;SDS011;2837;50.990;7.124;2023-04-15T10:25:02;155.37;;;8.00;;
5630;SDS011;2837;50.990;7.124;2023-04-15T10:27:29;151.77;;;8.40;;
5630;SDS011;2837;50.990;7.124;2023-04-15T10:29:56;152.47;;;8.53;;
5630;SDS011;2837;50.990;7.124;2023-04-15T10:32:21;150.90;;;8.00;;
5630;SDS011;2837;50.990;7.124;2023-04-15T10:34:48;151.10;;;8.10;;
5630;SDS011;2837;50.990;7.124;2023-04-15T10:37:22;151.27;;;8.33;;
5630;SDS011;2837;50.990;7.124;2023-04-15T10:39:57;150.90;;;7.70;;
5630;SDS011;2837;50.990;7.124;2023-04-15T10:42:23;150.60;;;8.50;;
5630;SDS011;2837;50.990;7.124;2023-04-15T10:44:49;150.60;;;8.03;;
5630;SDS011;2837;50.990;7.124;2023-04-15T10:47:17;150.30;;;8.50;;
5630;SDS011;2837;50.990;7.124;2023-04-15T10:49:50;153.50;;;8.93;;
5630;SDS011;2837;50.990;7.124;2023-04-15T10:52:22;151.70;;;8.33;;
5630;SDS011;2837;50.990;7.124;2023-04-15T10:54:49;150.10;;;8.20;;
5630;SDS011;2837;50.990;7.124;2023-04-15T10:57:15;151.27;;;7.80;;
5630;SDS011;2837;50.990;7.124;2023-04-15T11:05:05;151.33;;;8.90;;
5630;SDS011;2837;50.990;7.124;2023-04-15T11:07:35;151.77;;;9.20;;
5630;SDS011;2837;50.990;7.124;2023-04-15T11:12:43;151.07;;;8.27;;
5630;SDS011;2837;50.990;7.124;2023-04-15T11:15:29;150.77;;;7.90;;
5630;SDS011;2837;50.990;7.124;2023-04-15T11:18:43;150.10;;;7.10;;
5630;SDS011;2837;50.990;7.124;2023-04-15T11:23:17;151.07;;;7.63;;
5630;SDS011;2837;50.990;7.124;2023-04-15T11:25:44;150.77;;;8.33;;
5630;SDS011;2837;50.990;7.124;2023-04-15T11:28:10;149.97;;;8.10;;
5630;SDS011;2837;50.990;7.124;2023-04-15T11:30:37;150.00;;;7.17;;
5630;SDS011;2837;50.990;7.124;2023-04-15T11:33:04;150.07;;;8.00;;
5630;SDS011;2837;50.990;7.124;2023-04-15T11:35:32;151.17;;;8.00;;
5630;SDS011;2837;50.990;7.124;2023-04-15T11:38:01;150.10;;;7.50;;
5630;SDS011;2837;50.990;7.124;2023-04-15T11:40:28;149.80;;;7.50;;
5630;SDS011;2837;50.990;7.124;2023-04-15T11:43:08;149.33;;;7.13;;
5630;SDS011;2837;50.990;7.124;2023-04-15T11:45:51;149.83;;;7.43;;
5630;SDS011;2837;50.990;7.124;2023-04-15T11:48:34;150.67;;;7.63;;
5630;SDS011;2837;50.990;7.124;2023-04-15T11:51:01;151.70;;;7.50;;
5630;SDS011;2837;50.990;7.124;2023-04-15T11:53:44;150.67;;;8.20;;
5630;SDS011;2837;50.990;7.124;2023-04-15T11:56:15;151.07;;;8.13;;
5630;SDS011;2837;50.990;7.124;2023-04-15T11:58:41;150.47;;;7.67;;
5630;SDS011;2837;50.990;7.124;2023-04-15T12:01:08;150.57;;;8.13;;
5630;SDS011;2837;50.990;7.124;2023-04-15T12:03:39;151.30;;;8.83;;
5630;SDS011;2837;50.990;7.124;2023-04-15T12:11:31;151.17;;;8.53;;
5630;SDS011;2837;50.990;7.124;2023-04-15T12:16:40;150.83;;;8.20;;
5630;SDS011;2837;50.990;7.124;2023-04-15T12:19:12;153.60;;;7.90;;
5630;SDS011;2837;50.990;7.124;2023-04-15T12:21:40;152.27;;;8.70;;
5630;SDS011;2837;50.990;7.124;2023-04-15T12:24:08;151.57;;;8.43;;
5630;SDS011;2837;50.990;7.124;2023-04-15T12:26:36;152.00;;;8.50;;
5630;SDS011;2837;50.990;7.124;2023-04-15T12:29:26;150.97;;;8.20;;
5630;SDS011;2837;50.990;7.124;2023-04-15T12:31:53;151.27;;;8.23;;
5630;SDS011;2837;50.990;7.124;2023-04-15T12:34:31;152.20;;;8.20;;
5630;SDS011;2837;50.990;7.124;2023-04-15T12:36:57;151.97;;;8.07;;
5630;SDS011;2837;50.990;7.124;2023-04-15T12:39:25;152.67;;;8.60;;
5630;SDS011;2837;50.990;7.124;2023-04-15T12:41:52;152.00;;;8.77;;
5630;SDS011;2837;50.990;7.124;2023-04-15T12:44:18;151.17;;;7.97;;
5630;SDS011;2837;50.990;7.124;2023-04-15T12:46:46;152.80;;;8.70;;
5630;SDS011;2837;50.990;7.124;2023-04-15T12:49:12;151.80;;;8.27;;
5630;SDS011;2837;50.990;7.124;2023-04-15T12:51:43;152.77;;;8.77;;
5630;SDS011;2837;50.990;7.124;2023-04-15T12:54:09;151.47;;;8.30;;
5630;SDS011;2837;50.990;7.124;2023-04-15T12:56:35;153.17;;;9.10;;
5630;SDS011;2837;50.990;7.124;2023-04-15T12:59:00;152.57;;;8.50;;
5630;SDS011;2837;50.990;7.124;2023-04-15T13:01:26;152.47;;;8.40;;
5630;SDS011;2837;50.990;7.124;2023-04-15T13:03:52;152.00;;;8.43;;
5630;SDS011;2837;50.990;7.124;2023-04-15T13:06:17;152.17;;;8.20;;
5630;SDS011;2837;50.990;7.124;2023-04-15T13:08:43;152.47;;;8.37;;
5630;SDS011;2837;50.990;7.124;2023-04-15T13:11:08;153.27;;;8.63;;
5630;SDS011;2837;50.990;7.124;2023-04-15T13:13:34;153.00;;;8.93;;
5630;SDS011;2837;50.990;7.124;2023-04-15T13:16:00;152.37;;;8.40;;
5630;SDS011;2837;50.990;7.124;2023-04-15T13:18:25;152.30;;;8.00;;
5630;SDS011;2837;50.990;7.124;2023-04-15T13:20:51;153.47;;;9.10;;
5630;SDS011;2837;50.990;7.124;2023-04-15T13:23:18;152.30;;;8.83;;
5630;SDS011;2837;50.990;7.124;2023-04-15T13:25:43;153.57;;;9.70;;
5630;SDS011;2837;50.990;7.124;2023-04-15T13:28:10;154.83;;;9.10;;
5630;SDS011;2837;50.990;7.124;2023-04-15T13:30:36;153.37;;;8.90;;
5630;SDS011;2837;50.990;7.124;2023-04-15T13:33:02;153.20;;;9.17;;
5630;SDS011;2837;50.990;7.124;2023-04-15T13:35:28;152.97;;;8.77;;
5630;SDS011;2837;50.990;7.124;2023-04-15T13:37:53;152.97;;;8.97;;
5630;SDS011;2837;50.990;7.124;2023-04-15T13:40:20;154.67;;;9.73;;
5630;SDS011;2837;50.990;7.124;2023-04-15T13:42:45;153.83;;;8.40;;
5630;SDS011;2837;50.990;7.124;2023-04-15T13:45:11;154.07;;;9.30;;
5630;SDS011;2837;50.990;7.124;2023-04-15T13:47:37;153.67;;;9.47;;
5630;SDS011;2837;50.990;7.124;2023-04-15T13:50:03;153.80;;;9.10;;
5630;SDS011;2837;50.990;7.124;2023-04-15T13:52:29;154.37;;;9.90;;
5630;SDS011;2837;50.990;7.124;2023-04-15T13:54:55;155.30;;;10.47;;
5630;SDS011;2837;50.990;7.124;2023-04-15T13:57:20;154.27;;;9.60;;
5630;SDS011;2837;50.990;7.124;2023-04-15T13:59:46;160.40;;;10.50;;
5630;SDS011;2837;50.990;7.124;2023-04-15T14:02:11;154.17;;;9.43;;
5630;SDS011;2837;50.990;7.124;2023-04-15T14:04:37;154.30;;;9.93;;
5630;SDS011;2837;50.990;7.124;2023-04-15T14:07:03;155.17;;;10.30;;
5630;SDS011;2837;50.990;7.124;2023-04-15T14:09:29;155.37;;;10.30;;
5630;SDS011;2837;50.990;7.124;2023-04-15T14:11:54;155.17;;;10.13;;
5630;SDS011;2837;50.990;7.124;2023-04-15T14:14:20;155.37;;;10.30;;
5630;SDS011;2837;50.990;7.124;2023-04-15T14:16:46;155.10;;;10.10;;
5630;SDS011;2837;50.990;7.124;2023-04-15T14:19:12;155.43;;;9.90;;
5630;SDS011;2837;50.990;7.124;2023-04-15T14:21:38;155.87;;;9.90;;
5630;SDS011;2837;50.990;7.124;2023-04-15T14:24:03;155.37;;;9.97;;
5630;SDS011;2837;50.990;7.124;2023-04-15T14:26:29;156.27;;;10.23;;
5630;SDS011;2837;50.990;7.124;2023-04-15T14:28:55;155.60;;;9.90;;
5630;SDS011;2837;50.990;7.124;2023-04-15T14:31:20;154.30;;;9.50;;
5630;SDS011;2837;50.990;7.124;2023-04-15T14:33:46;154.10;;;9.73;;
5630;SDS011;2837;50.990;7.124;2023-04-15T14:36:11;155.13;;;10.20;;
5630;SDS011;2837;50.990;7.124;2023-04-15T14:38:37;155.07;;;9.97;;
5630;SDS011;2837;50.990;7.124;2023-04-15T14:41:04;155.00;;;9.70;;
5630;SDS011;2837;50.990;7.124;2023-04-15T14:43:30;154.67;;;10.10;;
5630;SDS011;2837;50.990;7.124;2023-04-15T14:45:55;155.40;;;10.53;;
5630;SDS011;2837;50.990;7.124;2023-04-15T14:48:21;155.40;;;10.20;;
5630;SDS011;2837;50.990;7.124;2023-04-15T14:50:46;155.37;;;10.27;;
5630;SDS011;2837;50.990;7.124;2023-04-15T14:53:12;153.90;;;10.00;;
5630;SDS011;2837;50.990;7.124;2023-04-15T14:55:38;154.23;;;9.50;;
5630;SDS011;2837;50.990;7.124;2023-04-15T14:58:04;154.43;;;9.60;;
5630;SDS011;2837;50.990;7.124;2023-04-15T15:00:32;155.30;;;9.57;;
5630;SDS011;2837;50.990;7.124;2023-04-15T15:02:57;157.60;;;9.00;;
5630;SDS011;2837;50.990;7.124;2023-04-15T15:05:23;152.87;;;8.40;;
5630;SDS011;2837;50.990;7.124;2023-04-15T15:07:49;153.50;;;9.30;;
5630;SDS011;2837;50.990;7.124;2023-04-15T15:10:15;153.70;;;8.70;;
5630;SDS011;2837;50.990;7.124;2023-04-15T15:12:40;153.47;;;9.00;;
5630;SDS011;2837;50.990;7.124;2023-04-15T15:15:06;153.53;;;8.30;;
5630;SDS011;2837;50.990;7.124;2023-04-15T15:17:33;154.20;;;8.43;;
5630;SDS011;2837;50.990;7.124;2023-04-15T15:19:59;154.47;;;8.80;;
5630;SDS011;2837;50.990;7.124;2023-04-15T15:22:25;154.70;;;9.33;;
5630;SDS011;2837;50.990;7.124;2023-04-15T15:24:51;152.37;;;8.27;;
5630;SDS011;2837;50.990;7.124;2023-04-15T15:27:17;153.63;;;8.80;;
5630;SDS011;2837;50.990;7.124;2023-04-15T15:29:43;152.87;;;8.07;;
5630;SDS011;2837;50.990;7.124;2023-04-15T15:32:08;152.97;;;8.27;;
5630;SDS011;2837;50.990;7.124;2023-04-15T15:34:34;154.37;;;8.20;;
5630;SDS011;2837;50.990;7.124;2023-04-15T15:36:59;156.80;;;8.30;;
5630;SDS011;2837;50.990;7.124;2023-04-15T15:39:25;154.07;;;8.73;;
5630;SDS011;2837;50.990;7.124;2023-04-15T15:41:52;155.07;;;8.70;;
5630;SDS011;2837;50.990;7.124;2023-04-15T15:44:17;155.00;;;8.40;;
5630;SDS011;2837;50.990;7.124;2023-04-15T15:46:43;152.70;;;7.60;;
5630;SDS011;2837;50.990;7.124;2023-04-15T15:49:09;152.73;;;8.20;;
5630;SDS011;2837;50.990;7.124;2023-04-15T15:51:35;152.27;;;8.10;;
5630;SDS011;2837;50.990;7.124;2023-04-15T15:54:01;155.27;;;8.37;;
5630;SDS011;2837;50.990;7.124;2023-04-15T15:56:26;153.70;;;8.10;;
5630;SDS011;2837;50.990;7.124;2023-04-15T15:58:52;152.63;;;8.00;;
5630;SDS011;2837;50.990;7.124;2023-04-15T16:01:17;152.50;;;7.83;;
5630;SDS011;2837;50.990;7.124;2023-04-15T16:03:43;152.53;;;7.53;;
5630;SDS011;2837;50.990;7.124;2023-04-15T16:06:08;152.93;;;8.33;;
5630;SDS011;2837;50.990;7.124;2023-04-15T16:08:34;155.10;;;7.83;;
5630;SDS011;2837;50.990;7.124;2023-04-15T16:10:59;152.53;;;7.47;;
5630;SDS011;2837;50.990;7.124;2023-04-15T16:13:25;153.77;;;7.57;;
5630;SDS011;2837;50.990;7.124;2023-04-15T16:15:51;152.57;;;7.90;;
5630;SDS011;2837;50.990;7.124;2023-04-15T16:18:17;153.00;;;7.93;;
5630;SDS011;2837;50.990;7.124;2023-04-15T16:20:42;153.50;;;8.20;;
5630;SDS011;2837;50.990;7.124;2023-04-15T16:23:12;152.80;;;8.17;;
5630;SDS011;2837;50.990;7.124;2023-04-15T16:25:40;152.73;;;7.63;;
5630;SDS011;2837;50.990;7.124;2023-04-15T16:28:07;153.40;;;7.90;;
5630;SDS011;2837;50.990;7.124;2023-04-15T16:30:36;153.00;;;7.80;;
5630;SDS011;2837;50.990;7.124;2023-04-15T16:33:03;153.47;;;8.13;;
5630;SDS011;2837;50.990;7.124;2023-04-15T16:35:30;152.53;;;7.73;;
5630;SDS011;2837;50.990;7.124;2023-04-15T16:37:55;152.30;;;7.57;;
5630;SDS011;2837;50.990;7.124;2023-04-15T16:40:21;152.87;;;7.43;;
5630;SDS011;2837;50.990;7.124;2023-04-15T16:42:48;152.87;;;7.87;;
5630;SDS011;2837;50.990;7.124;2023-04-15T16:45:14;160.13;;;8.10;;
5630;SDS011;2837;50.990;7.124;2023-04-15T16:47:40;153.27;;;8.13;;
5630;SDS011;2837;50.990;7.124;2023-04-15T16:50:05;152.47;;;7.77;;
5630;SDS011;2837;50.990;7.124;2023-04-15T16:52:31;153.10;;;8.03;;
5630;SDS011;2837;50.990;7.124;2023-04-15T16:54:57;151.97;;;7.90;;
5630;SDS011;2837;50.990;7.124;2023-04-15T16:57:23;152.50;;;7.50;;
5630;SDS011;2837;50.990;7.124;2023-04-15T16:59:48;151.37;;;7.40;;
5630;SDS011;2837;50.990;7.124;2023-04-15T17:02:14;152.47;;;7.63;;
5630;SDS011;2837;50.990;7.124;2023-04-15T17:04:39;154.70;;;8.10;;
5630;SDS011;2837;50.990;7.124;2023-04-15T17:07:05;155.40;;;8.17;;
5630;SDS011;2837;50.990;7.124;2023-04-15T17:09:32;152.77;;;7.87;;
5630;SDS011;2837;50.990;7.124;2023-04-15T17:11:58;153.57;;;7.50;;
5630;SDS011;2837;50.990;7.124;2023-04-15T17:14:25;151.97;;;7.67;;
5630;SDS011;2837;50.990;7.124;2023-04-15T17:16:52;153.27;;;8.10;;
5630;SDS011;2837;50.990;7.124;2023-04-15T17:19:18;152.70;;;7.50;;
5630;SDS011;2837;50.990;7.124;2023-04-15T17:21:43;152.73;;;8.33;;
5630;SDS011;2837;50.990;7.124;2023-04-15T17:24:09;153.33;;;8.23;;
5630;SDS011;2837;50.990;7.124;2023-04-15T17:26:35;152.33;;;7.57;;
5630;SDS011;2837;50.990;7.124;2023-04-15T17:29:00;155.20;;;8.67;;
5630;SDS011;2837;50.990;7.124;2023-04-15T17:31:26;154.67;;;8.13;;
5630;SDS011;2837;50.990;7.124;2023-04-15T17:33:53;152.53;;;7.60;;
5630;SDS011;2837;50.990;7.124;2023-04-15T17:36:19;153.17;;;8.10;;
5630;SDS011;2837;50.990;7.124;2023-04-15T17:38:45;154.17;;;7.43;;
5630;SDS011;2837;50.990;7.124;2023-04-15T17:41:11;152.80;;;7.90;;
5630;SDS011;2837;50.990;7.124;2023-04-15T17:43:37;154.60;;;7.53;;
5630;SDS011;2837;50.990;7.124;2023-04-15T17:46:02;152.77;;;7.97;;
5630;SDS011;2837;50.990;7.124;2023-04-15T17:48:29;152.93;;;8.07;;
5630;SDS011;2837;50.990;7.124;2023-04-15T17:50:55;152.90;;;8.00;;
5630;SDS011;2837;50.990;7.124;2023-04-15T17:53:20;152.47;;;7.70;;
5630;SDS011;2837;50.990;7.124;2023-04-15T17:55:46;153.20;;;8.10;;
5630;SDS011;2837;50.990;7.124;2023-04-15T17:58:11;153.47;;;7.93;;
5630;SDS011;2837;50.990;7.124;2023-04-15T18:00:37;152.97;;;7.70;;
5630;SDS011;2837;50.990;7.124;2023-04-15T18:03:02;152.87;;;8.27;;
5630;SDS011;2837;50.990;7.124;2023-04-15T18:05:28;153.47;;;7.77;;
5630;SDS011;2837;50.990;7.124;2023-04-15T18:07:54;152.67;;;7.97;;
5630;SDS011;2837;50.990;7.124;2023-04-15T18:10:19;152.17;;;7.27;;
5630;SDS011;2837;50.990;7.124;2023-04-15T18:12:45;151.47;;;7.13;;
5630;SDS011;2837;50.990;7.124;2023-04-15T18:15:11;152.37;;;7.80;;
5630;SDS011;2837;50.990;7.124;2023-04-15T18:17:38;153.17;;;7.87;;
5630;SDS011;2837;50.990;7.124;2023-04-15T18:20:04;153.27;;;7.87;;
5630;SDS011;2837;50.990;7.124;2023-04-15T18:22:30;153.20;;;7.63;;
5630;SDS011;2837;50.990;7.124;2023-04-15T18:24:56;153.07;;;7.70;;
5630;SDS011;2837;50.990;7.124;2023-04-15T18:27:27;152.67;;;7.73;;
5630;SDS011;2837;50.990;7.124;2023-04-15T18:29:54;153.47;;;7.80;;
5630;SDS011;2837;50.990;7.124;2023-04-15T18:32:20;152.87;;;7.90;;
5630;SDS011;2837;50.990;7.124;2023-04-15T18:34:47;152.77;;;7.97;;
5630;SDS011;2837;50.990;7.124;2023-04-15T18:37:12;155.43;;;8.67;;
5630;SDS011;2837;50.990;7.124;2023-04-15T18:39:38;155.70;;;8.90;;
5630;SDS011;2837;50.990;7.124;2023-04-15T18:42:03;153.80;;;8.23;;
5630;SDS011;2837;50.990;7.124;2023-04-15T18:44:29;155.57;;;8.27;;
5630;SDS011;2837;50.990;7.124;2023-04-15T18:46:55;156.57;;;9.10;;
5630;SDS011;2837;50.990;7.124;2023-04-15T18:49:20;154.50;;;8.40;;
5630;SDS011;2837;50.990;7.124;2023-04-15T18:51:46;155.30;;;9.00;;
5630;SDS011;2837;50.990;7.124;2023-04-15T18:54:11;156.17;;;9.63;;
5630;SDS011;2837;50.990;7.124;2023-04-15T18:56:37;153.97;;;8.40;;
5630;SDS011;2837;50.990;7.124;2023-04-15T18:59:03;154.00;;;8.83;;
5630;SDS011;2837;50.990;7.124;2023-04-15T19:01:29;155.87;;;9.57;;
5630;SDS011;2837;50.990;7.124;2023-04-15T19:03:55;155.67;;;10.00;;
5630;SDS011;2837;50.990;7.124;2023-04-15T19:06:21;154.57;;;9.13;;
5630;SDS011;2837;50.990;7.124;2023-04-15T19:08:47;154.87;;;9.30;;
5630;SDS011;2837;50.990;7.124;2023-04-15T19:11:12;154.57;;;9.53;;
5630;SDS011;2837;50.990;7.124;2023-04-15T19:13:38;155.17;;;9.53;;
5630;SDS011;2837;50.990;7.124;2023-04-15T19:16:03;157.10;;;9.43;;
5630;SDS011;2837;50.990;7.124;2023-04-15T19:18:29;155.07;;;9.30;;
5630;SDS011;2837;50.990;7.124;2023-04-15T19:20:55;155.90;;;9.87;;
5630;SDS011;2837;50.990;7.124;2023-04-15T19:23:21;155.70;;;9.60;;
5630;SDS011;2837;50.990;7.124;2023-04-15T19:25:47;154.87;;;9.10;;
5630;SDS011;2837;50.990;7.124;2023-04-15T19:28:13;158.17;;;9.47;;
5630;SDS011;2837;50.990;7.124;2023-04-15T19:30:39;156.50;;;10.00;;
5630;SDS011;2837;50.990;7.124;2023-04-15T19:33:05;155.50;;;9.90;;
5630;SDS011;2837;50.990;7.124;2023-04-15T19:35:31;156.27;;;9.23;;
5630;SDS011;2837;50.990;7.124;2023-04-15T19:37:56;154.60;;;9.30;;
5630;SDS011;2837;50.990;7.124;2023-04-15T19:40:22;156.33;;;9.60;;
5630;SDS011;2837;50.990;7.124;2023-04-15T19:42:48;156.17;;;9.70;;
5630;SDS011;2837;50.990;7.124;2023-04-15T19:45:13;155.83;;;9.50;;
5630;SDS011;2837;50.990;7.124;2023-04-15T19:47:39;157.87;;;9.40;;
5630;SDS011;2837;50.990;7.124;2023-04-15T19:50:05;156.57;;;9.70;;
5630;SDS011;2837;50.990;7.124;2023-04-15T19:52:32;154.70;;;9.07;;
5630;SDS011;2837;50.990;7.124;2023-04-15T19:54:58;155.53;;;9.63;;
5630;SDS011;2837;50.990;7.124;2023-04-15T19:57:23;154.87;;;8.63;;
5630;SDS011;2837;50.990;7.124;2023-04-15T19:59:49;154.90;;;8.63;;
5630;SDS011;2837;50.990;7.124;2023-04-15T20:02:15;155.57;;;9.10;;
5630;SDS011;2837;50.990;7.124;2023-04-15T20:04:40;155.40;;;8.63;;